Rochester Hills, Michigan
Current Conditions -  °F | °C
As of 8:55 AM on Friday 31 Oct 2014 (Local Time) from KVLL Reporting Station
Light Rain Light Rain  
Wind Chill:   Ceiling: 2800
Heat Index:   Visibility: 7mi
Dew Point:   Wind: 5mph
Humidity: 85%   Direction: 230°SW
Pressure: 29.9"   Gusts: NA
Location:  42.66°N, 83.16°W
Report Text: KVLL 311255Z AUTO 23004KT 7SM -RA OVC028 07/04 A2990 RMK AO2 T00660042
Loading
Personal Weather Stations






























Interactive Weather Map
Tropical Storm Tracking
New forecast layout! Learn more

10-Day Weather Forecast

Advertisements
Track Severe Weather on mobile